createdAt,value
2017-09-06T00:01:12.920Z,16.56
2017-09-06T00:03:39.353Z,16.58
2017-09-06T00:06:05.790Z,16.57
2017-09-06T00:08:32.171Z,16.56
2017-09-06T00:10:58.657Z,16.60
2017-09-06T00:13:25.092Z,16.57
2017-09-06T00:15:52.191Z,16.53
2017-09-06T00:18:18.679Z,16.54
2017-09-06T00:20:45.114Z,16.45
2017-09-06T00:23:11.649Z,16.41
2017-09-06T00:25:38.087Z,16.39
2017-09-06T00:28:04.521Z,16.35
2017-09-06T00:30:30.956Z,16.32
2017-09-06T00:32:58.211Z,16.29
2017-09-06T00:35:24.609Z,16.28
2017-09-06T00:37:50.977Z,16.30
2017-09-06T00:40:17.415Z,16.30
2017-09-06T00:42:43.846Z,16.35
2017-09-06T00:45:10.283Z,16.35
2017-09-06T00:47:36.695Z,16.32
2017-09-06T00:50:03.869Z,16.34
2017-09-06T00:52:30.304Z,16.27
2017-09-06T00:54:56.840Z,16.13
2017-09-06T00:57:23.240Z,15.99
2017-09-06T00:59:49.708Z,15.96
2017-09-06T01:02:16.146Z,15.96
2017-09-06T01:04:42.581Z,15.93
2017-09-06T01:07:09.732Z,15.90
2017-09-06T01:09:36.154Z,15.84
2017-09-06T01:12:02.602Z,15.85
2017-09-06T01:14:29.037Z,15.93
2017-09-06T01:16:55.574Z,15.95
2017-09-06T01:19:22.009Z,15.90
2017-09-06T01:21:48.447Z,16.15
2017-09-06T01:24:15.593Z,16.14
2017-09-06T01:26:42.032Z,16.20
2017-09-06T01:29:08.467Z,16.15
2017-09-06T01:31:34.898Z,16.16
2017-09-06T01:34:01.335Z,16.18
2017-09-06T01:36:27.770Z,16.10
2017-09-06T01:38:54.205Z,16.11
2017-09-06T01:41:21.304Z,16.11
2017-09-06T01:43:47.773Z,16.10
2017-09-06T01:46:14.176Z,16.12
2017-09-06T01:48:40.661Z,16.09
2017-09-06T01:51:07.096Z,16.07
2017-09-06T01:53:33.738Z,16.04
2017-09-06T01:56:00.171Z,15.98
2017-09-06T01:58:27.323Z,16.02
2017-09-06T02:00:53.757Z,15.93
2017-09-06T02:03:20.192Z,15.91
2017-09-06T02:05:46.626Z,15.78
2017-09-06T02:08:13.013Z,15.72
2017-09-06T02:10:39.599Z,15.73
2017-09-06T02:13:06.040Z,15.66
2017-09-06T02:15:33.186Z,15.63
2017-09-06T02:17:59.624Z,15.60
2017-09-06T02:20:26.055Z,15.61
2017-09-06T02:22:52.491Z,15.65
2017-09-06T02:25:18.845Z,15.66
2017-09-06T02:27:45.362Z,15.74
2017-09-06T02:30:11.795Z,15.67
2017-09-06T02:32:39.257Z,15.72
2017-09-06T02:35:05.692Z,15.71
2017-09-06T02:37:32.134Z,15.84
2017-09-06T02:39:58.550Z,15.86
2017-09-06T02:42:24.993Z,15.93
2017-09-06T02:44:51.430Z,15.94
2017-09-06T02:47:17.854Z,15.94
2017-09-06T02:49:45.020Z,15.93
2017-09-06T02:52:11.449Z,15.90
2017-09-06T02:54:37.887Z,15.88
2017-09-06T02:57:04.322Z,15.89
2017-09-06T02:59:30.856Z,15.88
2017-09-06T03:01:57.291Z,15.93
2017-09-06T03:04:23.730Z,15.94
2017-09-06T03:06:50.981Z,15.93
2017-09-06T03:09:17.415Z,15.90
2017-09-06T03:11:43.850Z,15.88
2017-09-06T03:14:10.282Z,15.83
2017-09-06T03:16:36.723Z,15.81
2017-09-06T03:19:03.155Z,15.82
2017-09-06T03:21:29.590Z,15.75
2017-09-06T03:23:56.741Z,15.82
2017-09-06T03:26:23.176Z,15.91
2017-09-06T03:28:49.611Z,15.90
2017-09-06T03:31:16.046Z,16.01
2017-09-06T03:33:42.480Z,16.09
2017-09-06T03:36:08.919Z,16.15
2017-09-06T03:38:35.352Z,16.23
2017-09-06T03:41:02.502Z,16.27
2017-09-06T03:43:28.877Z,16.30
2017-09-06T03:45:55.373Z,16.32
2017-09-06T03:48:21.807Z,16.22
2017-09-06T03:50:48.245Z,16.28
2017-09-06T03:53:14.681Z,16.26
2017-09-06T03:55:41.116Z,16.31
2017-09-06T03:58:08.368Z,16.26
2017-09-06T04:00:34.804Z,16.25
2017-09-06T04:03:01.235Z,16.10
2017-09-06T04:05:27.670Z,16.16
2017-09-06T04:07:54.108Z,16.13
2017-09-06T04:10:20.539Z,16.25
2017-09-06T04:12:46.976Z,16.33
2017-09-06T04:15:14.181Z,16.32
2017-09-06T04:17:40.666Z,16.34
2017-09-06T04:20:07.098Z,16.38
2017-09-06T04:22:33.534Z,16.34
2017-09-06T04:24:59.969Z,16.48
2017-09-06T04:27:26.405Z,16.55
2017-09-06T04:29:52.809Z,16.65
2017-09-06T04:32:20.093Z,16.78
2017-09-06T04:34:46.531Z,16.85
2017-09-06T04:37:12.921Z,16.99
2017-09-06T04:39:39.415Z,17.04
2017-09-06T04:42:05.831Z,17.16
2017-09-06T04:44:32.268Z,17.22
2017-09-06T04:46:58.701Z,17.33
2017-09-06T04:49:25.956Z,17.43
2017-09-06T04:51:52.393Z,17.44
2017-09-06T04:54:18.782Z,17.65
2017-09-06T04:56:45.250Z,17.74
2017-09-06T04:59:11.695Z,17.81
2017-09-06T05:01:38.128Z,17.89
2017-09-06T05:04:04.568Z,18.01
2017-09-06T05:06:31.717Z,18.05
2017-09-06T05:08:58.152Z,18.13
2017-09-06T05:11:24.589Z,18.22
2017-09-06T05:13:50.977Z,18.25
2017-09-06T05:16:17.440Z,18.36
2017-09-06T05:18:43.881Z,18.49
2017-09-06T05:21:10.325Z,18.61
2017-09-06T05:23:37.581Z,18.74
2017-09-06T05:26:04.118Z,18.87
2017-09-06T05:28:30.554Z,18.97
2017-09-06T05:30:56.986Z,19.02
2017-09-06T05:33:23.433Z,19.07
2017-09-06T05:35:49.980Z,19.12
2017-09-06T05:38:16.395Z,19.21
2017-09-06T05:40:42.829Z,19.30
2017-09-06T05:43:09.357Z,19.30
2017-09-06T05:45:36.312Z,19.28
2017-09-06T05:48:02.748Z,19.35
2017-09-06T05:50:29.490Z,19.37
2017-09-06T05:52:55.908Z,19.44
2017-09-06T05:55:22.464Z,19.54
2017-09-06T05:57:49.104Z,19.63
2017-09-06T06:00:15.536Z,19.79
2017-09-06T06:02:41.972Z,19.90
2017-09-06T06:05:08.406Z,20.03
2017-09-06T06:07:35.149Z,20.26
2017-09-06T06:10:01.688Z,20.44
2017-09-06T06:12:28.177Z,20.65
2017-09-06T06:14:54.761Z,20.72
2017-09-06T06:17:21.463Z,20.77
2017-09-06T06:19:48.042Z,20.81
2017-09-06T06:22:14.784Z,20.98
2017-09-06T06:24:41.218Z,20.95
2017-09-06T06:27:07.652Z,21.06
2017-09-06T06:29:34.497Z,21.03
2017-09-06T06:32:00.930Z,21.10
2017-09-06T06:34:27.366Z,21.17
2017-09-06T06:36:54.176Z,21.14
2017-09-06T06:39:20.637Z,21.24
2017-09-06T06:41:47.087Z,21.18
2017-09-06T06:44:14.199Z,21.14
2017-09-06T06:46:40.713Z,21.06
2017-09-06T06:49:07.208Z,21.18
2017-09-06T06:51:33.945Z,21.21
2017-09-06T06:54:00.486Z,21.26
2017-09-06T06:56:27.021Z,21.25
2017-09-06T06:58:53.854Z,21.26
2017-09-06T07:01:20.509Z,21.22
2017-09-06T07:03:47.042Z,21.29
2017-09-06T07:06:14.059Z,21.32
2017-09-06T07:08:40.524Z,21.41
2017-09-06T07:11:07.169Z,21.46
2017-09-06T07:13:34.112Z,21.51
2017-09-06T07:16:00.547Z,21.49
2017-09-06T07:18:27.068Z,21.57
2017-09-06T07:20:53.827Z,21.61
2017-09-06T07:23:20.364Z,21.64
2017-09-06T07:25:46.798Z,21.63
2017-09-06T07:28:13.641Z,21.63
2017-09-06T07:30:40.181Z,21.73
2017-09-06T07:33:07.335Z,21.70
2017-09-06T07:35:34.382Z,21.68
2017-09-06T07:38:00.816Z,21.58
2017-09-06T07:40:27.354Z,21.64
2017-09-06T07:42:54.303Z,21.71
2017-09-06T07:45:20.841Z,21.73
2017-09-06T07:47:47.376Z,21.77
2017-09-06T07:50:14.322Z,21.88
2017-09-06T07:52:40.758Z,22.07
2017-09-06T07:55:07.294Z,22.13
2017-09-06T07:57:33.728Z,22.40
2017-09-06T08:00:00.573Z,22.57
2017-09-06T08:02:27.008Z,22.53
2017-09-06T08:04:53.546Z,22.40
2017-09-06T08:07:20.390Z,22.19
2017-09-06T08:09:46.826Z,22.09
2017-09-06T08:12:13.362Z,22.05
2017-09-06T08:14:40.165Z,22.14
2017-09-06T08:17:06.745Z,22.27
2017-09-06T08:19:33.384Z,22.40
2017-09-06T08:22:00.144Z,22.45
2017-09-06T08:24:26.562Z,22.43
2017-09-06T08:26:52.995Z,22.38
2017-09-06T08:29:19.840Z,22.55
2017-09-06T08:31:46.302Z,22.62
2017-09-06T08:34:12.816Z,22.71
2017-09-06T08:36:39.656Z,22.85
2017-09-06T08:39:06.101Z,23.09
2017-09-06T08:41:32.527Z,23.17
2017-09-06T08:44:00.141Z,23.24
2017-09-06T08:46:26.604Z,23.25
2017-09-06T08:48:53.048Z,23.29
2017-09-06T08:51:20.007Z,23.24
2017-09-06T08:53:46.442Z,23.07
2017-09-06T08:56:13.494Z,23.12
2017-09-06T08:58:40.539Z,23.06
2017-09-06T09:01:07.058Z,23.24
2017-09-06T09:03:33.512Z,23.63
2017-09-06T09:06:00.666Z,23.78
2017-09-06T09:08:27.203Z,23.69
2017-09-06T09:10:53.739Z,23.80
2017-09-06T09:13:20.124Z,23.97
2017-09-06T09:15:46.813Z,24.00
2017-09-06T09:18:13.256Z,23.98
2017-09-06T09:20:39.787Z,23.95
2017-09-06T09:23:06.814Z,23.90
2017-09-06T09:25:33.225Z,23.99
2017-09-06T09:27:59.704Z,24.32
2017-09-06T09:30:26.198Z,24.58
2017-09-06T09:32:52.663Z,24.60
2017-09-06T09:35:19.306Z,24.43
2017-09-06T09:37:45.958Z,24.24
2017-09-06T09:40:12.493Z,24.17
2017-09-06T09:42:39.235Z,23.97
2017-09-06T09:45:05.772Z,23.94
2017-09-06T09:47:32.156Z,23.81
2017-09-06T09:49:59.562Z,23.81
2017-09-06T09:52:25.998Z,23.87
2017-09-06T09:54:52.434Z,23.99
2017-09-06T09:57:19.240Z,23.97
2017-09-06T09:59:45.809Z,23.97
2017-09-06T10:02:12.353Z,23.92
2017-09-06T10:04:39.194Z,23.81
2017-09-06T10:07:05.630Z,23.75
2017-09-06T10:09:32.784Z,23.94
2017-09-06T10:11:59.627Z,24.19
2017-09-06T10:14:26.062Z,24.50
2017-09-06T10:16:52.498Z,24.60
2017-09-06T10:19:19.345Z,24.84
2017-09-06T10:21:45.883Z,24.89
2017-09-06T10:24:12.315Z,24.98
2017-09-06T10:26:38.704Z,24.81
2017-09-06T10:29:05.187Z,24.66
2017-09-06T10:31:31.588Z,24.55
2017-09-06T10:33:58.673Z,24.51
2017-09-06T10:36:25.411Z,24.52
2017-09-06T10:38:51.844Z,24.47
2017-09-06T10:41:18.783Z,24.35
2017-09-06T10:43:45.227Z,24.47
2017-09-06T10:46:12.393Z,24.51
2017-09-06T10:48:38.904Z,24.40
2017-09-06T10:51:05.456Z,24.25
2017-09-06T10:53:31.991Z,24.24
2017-09-06T10:55:58.421Z,24.12
2017-09-06T10:58:25.056Z,24.21
2017-09-06T11:00:51.604Z,24.17
2017-09-06T11:03:17.990Z,24.18
2017-09-06T11:05:44.460Z,24.16
2017-09-06T11:08:11.112Z,24.18
2017-09-06T11:10:37.646Z,24.30
2017-09-06T11:13:04.066Z,24.52
2017-09-06T11:15:30.928Z,24.49
2017-09-06T11:17:57.362Z,24.41
2017-09-06T11:20:23.901Z,24.35
2017-09-06T11:22:51.056Z,24.41
2017-09-06T11:25:17.702Z,24.61
2017-09-06T11:27:44.191Z,24.61
2017-09-06T11:30:11.072Z,24.58
2017-09-06T11:32:37.637Z,24.97
2017-09-06T11:35:04.095Z,25.55
2017-09-06T11:37:30.669Z,26.34
2017-09-06T11:39:57.427Z,26.08
2017-09-06T11:42:23.966Z,25.85
2017-09-06T11:44:50.808Z,25.50
2017-09-06T11:47:17.244Z,25.29
2017-09-06T11:49:43.781Z,25.22
2017-09-06T11:52:10.522Z,25.27
2017-09-06T11:54:37.060Z,25.33
2017-09-06T11:57:03.496Z,25.76
2017-09-06T11:59:30.444Z,26.32
2017-09-06T12:01:56.874Z,26.62
2017-09-06T12:04:23.313Z,26.81
2017-09-06T12:06:50.255Z,26.43
2017-09-06T12:09:16.796Z,26.08
2017-09-06T12:11:43.335Z,25.80
2017-09-06T12:14:10.133Z,25.67
2017-09-06T12:16:36.615Z,25.57
2017-09-06T12:19:03.151Z,25.46
2017-09-06T12:21:29.997Z,25.47
2017-09-06T12:23:56.426Z,25.55
2017-09-06T12:26:22.867Z,25.85
2017-09-06T12:28:49.811Z,26.49
2017-09-06T12:31:16.350Z,27.79
2017-09-06T12:33:42.783Z,28.73
2017-09-06T12:36:09.323Z,29.65
2017-09-06T12:38:35.857Z,30.26
2017-09-06T12:41:02.377Z,30.90
2017-09-06T12:43:29.036Z,31.25
2017-09-06T12:45:55.573Z,30.59
2017-09-06T12:48:22.007Z,29.90
2017-09-06T12:50:48.543Z,30.17
2017-09-06T12:53:15.288Z,29.45
2017-09-06T12:55:41.721Z,28.94
2017-09-06T12:58:08.105Z,28.72
2017-09-06T13:00:34.567Z,29.19
2017-09-06T13:03:01.025Z,29.68
2017-09-06T13:05:27.670Z,29.43
2017-09-06T13:07:56.439Z,29.11
2017-09-06T13:10:23.509Z,29.49
2017-09-06T13:12:50.109Z,28.70
2017-09-06T13:15:17.211Z,27.46
2017-09-06T13:17:43.619Z,27.26
2017-09-06T13:20:10.117Z,28.01
2017-09-06T13:22:36.904Z,29.36
2017-09-06T13:25:03.564Z,29.67
2017-09-06T13:27:30.138Z,29.50
2017-09-06T13:29:56.727Z,29.96
2017-09-06T13:32:23.261Z,30.97
2017-09-06T13:34:49.699Z,31.35
2017-09-06T13:37:16.439Z,30.78
2017-09-06T13:39:42.976Z,30.73
2017-09-06T13:42:10.032Z,31.18
2017-09-06T13:44:37.081Z,31.79
2017-09-06T13:47:03.611Z,32.19
2017-09-06T13:49:30.252Z,32.86
2017-09-06T13:51:57.198Z,33.20
2017-09-06T13:54:23.940Z,32.20
2017-09-06T13:56:50.584Z,30.60
2017-09-06T13:59:17.629Z,29.37
2017-09-06T14:01:44.101Z,28.61
2017-09-06T14:04:11.731Z,28.07
2017-09-06T14:06:38.624Z,27.57
2017-09-06T14:09:05.169Z,27.33
2017-09-06T14:11:31.852Z,27.15
2017-09-06T14:13:58.693Z,27.06
2017-09-06T14:16:25.543Z,26.98
2017-09-06T14:18:52.179Z,26.86
2017-09-06T14:21:19.230Z,26.76
2017-09-06T14:23:46.076Z,26.76
2017-09-06T14:26:12.508Z,26.71
2017-09-06T14:28:39.138Z,26.67
2017-09-06T14:31:05.687Z,26.56
2017-09-06T14:33:32.225Z,26.39
2017-09-06T14:35:59.068Z,26.29
2017-09-06T14:38:25.502Z,26.28
2017-09-06T14:40:52.040Z,26.32
2017-09-06T14:43:18.679Z,26.26
2017-09-06T14:45:45.114Z,26.32
2017-09-06T14:48:11.548Z,26.38
2017-09-06T14:50:37.986Z,26.50
2017-09-06T14:53:04.419Z,26.68
2017-09-06T14:55:30.855Z,26.61
2017-09-06T14:57:57.292Z,26.57
2017-09-06T15:00:23.727Z,26.60
2017-09-06T15:02:50.976Z,26.73
2017-09-06T15:05:17.516Z,26.73
2017-09-06T15:07:43.950Z,26.69
2017-09-06T15:10:10.391Z,26.71
2017-09-06T15:12:36.819Z,26.79
2017-09-06T15:15:03.260Z,26.87
2017-09-06T15:17:29.692Z,26.75
2017-09-06T15:19:56.940Z,26.81
2017-09-06T15:22:23.379Z,26.78
2017-09-06T15:24:49.815Z,26.86
2017-09-06T15:27:16.251Z,26.72
2017-09-06T15:29:42.685Z,26.62
2017-09-06T15:32:09.119Z,26.56
2017-09-06T15:34:35.552Z,26.49
2017-09-06T15:37:02.809Z,26.39
2017-09-06T15:39:29.242Z,26.20
2017-09-06T15:41:55.676Z,26.08
2017-09-06T15:44:22.060Z,26.08
2017-09-06T15:46:48.443Z,26.10
2017-09-06T15:49:14.880Z,25.98
2017-09-06T15:51:41.315Z,25.90
2017-09-06T15:54:08.567Z,25.83
2017-09-06T15:56:35.002Z,25.75
2017-09-06T15:59:01.436Z,25.66
2017-09-06T16:01:27.871Z,25.60
2017-09-06T16:03:54.306Z,25.60
2017-09-06T16:06:20.741Z,25.63
2017-09-06T16:08:47.176Z,25.60
2017-09-06T16:11:14.337Z,25.68
2017-09-06T16:13:40.765Z,25.67
2017-09-06T16:16:07.197Z,25.57
2017-09-06T16:18:33.632Z,25.56
2017-09-06T16:21:00.024Z,25.71
2017-09-06T16:23:26.400Z,25.58
2017-09-06T16:25:52.835Z,25.52
2017-09-06T16:28:19.946Z,25.50
2017-09-06T16:30:46.402Z,25.38
2017-09-06T16:33:12.844Z,25.27
2017-09-06T16:35:39.254Z,25.24
2017-09-06T16:38:05.723Z,25.21
2017-09-06T16:40:32.112Z,25.15
2017-09-06T16:42:58.554Z,25.16
2017-09-06T16:45:25.752Z,25.07
2017-09-06T16:47:52.184Z,25.05
2017-09-06T16:50:18.593Z,24.99
2017-09-06T16:52:45.037Z,24.91
2017-09-06T16:55:11.479Z,24.83
2017-09-06T16:57:37.921Z,24.80
2017-09-06T17:00:04.358Z,24.71
2017-09-06T17:02:31.509Z,24.67
2017-09-06T17:04:57.941Z,24.58
2017-09-06T17:07:24.378Z,24.57
2017-09-06T17:09:50.813Z,24.51
2017-09-06T17:12:17.249Z,24.44
2017-09-06T17:14:43.671Z,24.35
2017-09-06T17:17:10.118Z,24.26
2017-09-06T17:19:37.269Z,24.21
2017-09-06T17:22:03.704Z,24.16
2017-09-06T17:24:30.139Z,24.11
2017-09-06T17:26:56.575Z,23.99
2017-09-06T17:29:23.010Z,23.93
2017-09-06T17:31:49.445Z,23.86
2017-09-06T17:34:15.879Z,23.87
2017-09-06T17:36:42.988Z,23.80
2017-09-06T17:39:09.474Z,23.78
2017-09-06T17:41:35.900Z,23.69
2017-09-06T17:44:02.336Z,23.52
2017-09-06T17:46:28.770Z,23.36
2017-09-06T17:48:55.205Z,23.27
2017-09-06T17:51:21.637Z,23.26
2017-09-06T17:53:48.028Z,23.24
2017-09-06T17:56:14.510Z,23.07
2017-09-06T17:58:40.944Z,23.01
2017-09-06T18:01:07.493Z,22.90
2017-09-06T18:03:34.019Z,22.79
2017-09-06T18:06:00.455Z,22.79
2017-09-06T18:08:26.889Z,22.78
2017-09-06T18:10:53.326Z,22.62
2017-09-06T18:13:19.758Z,22.55
2017-09-06T18:15:46.165Z,22.52
2017-09-06T18:18:12.580Z,22.46
2017-09-06T18:20:39.017Z,22.38
2017-09-06T18:23:05.495Z,22.34
2017-09-06T18:25:31.935Z,22.26
2017-09-06T18:27:58.370Z,22.20
2017-09-06T18:30:24.804Z,22.22
2017-09-06T18:32:51.239Z,22.15
2017-09-06T18:35:18.389Z,22.10
2017-09-06T18:37:44.826Z,22.04
2017-09-06T18:40:11.259Z,21.96
2017-09-06T18:42:37.690Z,21.87
2017-09-06T18:45:04.130Z,21.83
2017-09-06T18:47:30.565Z,21.71
2017-09-06T18:49:56.999Z,21.67
2017-09-06T18:52:24.253Z,21.58
2017-09-06T18:54:50.641Z,21.53
2017-09-06T18:57:17.123Z,21.46
2017-09-06T18:59:43.558Z,21.40
2017-09-06T19:02:09.992Z,21.34
2017-09-06T19:04:36.427Z,21.34
2017-09-06T19:07:02.963Z,21.30
2017-09-06T19:09:30.014Z,21.21
2017-09-06T19:11:56.445Z,21.19
2017-09-06T19:14:22.884Z,21.14
2017-09-06T19:16:49.420Z,21.09
2017-09-06T19:19:15.855Z,21.03
2017-09-06T19:21:42.291Z,20.92
2017-09-06T19:24:08.724Z,20.84
2017-09-06T19:26:35.979Z,20.83
2017-09-06T19:29:02.416Z,20.72
2017-09-06T19:31:28.849Z,20.51
2017-09-06T19:33:55.284Z,20.46
2017-09-06T19:36:21.718Z,20.50
2017-09-06T19:38:48.153Z,20.42
2017-09-06T19:41:14.591Z,20.36
2017-09-06T19:43:41.749Z,20.26
2017-09-06T19:46:08.174Z,20.26
2017-09-06T19:48:34.611Z,20.23
2017-09-06T19:51:01.250Z,20.16
2017-09-06T19:53:27.689Z,20.20
2017-09-06T19:55:54.120Z,20.21
2017-09-06T19:58:20.554Z,20.20
2017-09-06T20:00:47.810Z,20.10
2017-09-06T20:03:14.245Z,20.08
2017-09-06T20:05:40.760Z,20.01
2017-09-06T20:08:07.216Z,20.14
2017-09-06T20:10:33.651Z,20.17
2017-09-06T20:13:00.088Z,20.20
2017-09-06T20:15:26.634Z,20.14
2017-09-06T20:17:53.775Z,20.09
2017-09-06T20:20:20.209Z,20.08
2017-09-06T20:22:46.643Z,19.96
2017-09-06T20:25:13.283Z,19.84
2017-09-06T20:27:39.718Z,19.90
2017-09-06T20:30:06.215Z,19.91
2017-09-06T20:32:32.693Z,19.87
2017-09-06T20:34:59.842Z,19.82
2017-09-06T20:37:26.276Z,19.70
2017-09-06T20:39:53.428Z,19.52
2017-09-06T20:42:19.863Z,19.52
2017-09-06T20:44:46.300Z,19.58
2017-09-06T20:47:12.734Z,19.55
2017-09-06T20:49:39.375Z,19.42
2017-09-06T20:52:05.873Z,19.41
2017-09-06T20:54:32.340Z,19.40
2017-09-06T20:56:58.778Z,19.44
2017-09-06T20:59:25.215Z,19.41
2017-09-06T21:01:51.615Z,19.16
2017-09-06T21:04:18.083Z,18.98
2017-09-06T21:06:44.520Z,18.95
2017-09-06T21:09:11.773Z,18.94
2017-09-06T21:11:38.208Z,19.11
2017-09-06T21:14:04.642Z,19.18
2017-09-06T21:16:31.078Z,19.16
2017-09-06T21:18:57.513Z,19.12
2017-09-06T21:21:23.947Z,18.92
2017-09-06T21:23:50.382Z,18.73
2017-09-06T21:26:17.635Z,18.54
2017-09-06T21:28:44.072Z,18.51
2017-09-06T21:31:10.506Z,18.52
2017-09-06T21:33:36.941Z,18.58
2017-09-06T21:36:03.407Z,18.65
2017-09-06T21:38:29.913Z,18.66
2017-09-06T21:40:56.347Z,18.66
2017-09-06T21:43:23.605Z,18.69
2017-09-06T21:45:49.993Z,18.73
2017-09-06T21:48:16.469Z,18.74
2017-09-06T21:50:42.913Z,18.63
2017-09-06T21:53:09.446Z,18.50
2017-09-06T21:55:35.880Z,18.32
2017-09-06T21:58:02.314Z,18.19
2017-09-06T22:00:29.469Z,18.10
2017-09-06T22:02:55.903Z,18.08
2017-09-06T22:05:22.337Z,18.09
2017-09-06T22:07:48.770Z,18.12
2017-09-06T22:10:15.205Z,18.13
2017-09-06T22:12:41.640Z,18.17
2017-09-06T22:15:08.075Z,18.21
2017-09-06T22:17:35.225Z,18.37
2017-09-06T22:20:01.662Z,18.39
2017-09-06T22:22:28.095Z,18.32
2017-09-06T22:24:54.532Z,18.20
2017-09-06T22:27:20.964Z,18.06
2017-09-06T22:29:47.400Z,17.91
2017-09-06T22:32:13.835Z,17.94
2017-09-06T22:34:41.082Z,17.98
2017-09-06T22:37:07.526Z,18.09
2017-09-06T22:39:33.960Z,18.18
2017-09-06T22:42:00.401Z,18.20
2017-09-06T22:44:26.830Z,18.14
2017-09-06T22:46:53.221Z,18.02
2017-09-06T22:49:19.685Z,17.95
2017-09-06T22:51:46.851Z,17.92
2017-09-06T22:54:13.388Z,18.03
2017-09-06T22:56:40.639Z,18.02
2017-09-06T22:59:07.179Z,17.81
2017-09-06T23:01:33.617Z,17.63
2017-09-06T23:04:00.049Z,17.57
2017-09-06T23:06:26.484Z,17.57
2017-09-06T23:08:52.918Z,17.68
2017-09-06T23:11:19.355Z,17.79
2017-09-06T23:13:45.789Z,17.76
2017-09-06T23:16:12.182Z,17.66
2017-09-06T23:18:38.649Z,17.66
2017-09-06T23:21:05.193Z,17.66
2017-09-06T23:23:31.630Z,17.75
2017-09-06T23:25:58.783Z,17.75
2017-09-06T23:28:25.219Z,17.71
2017-09-06T23:30:51.652Z,17.74
2017-09-06T23:33:18.086Z,17.73
2017-09-06T23:35:44.521Z,17.62
2017-09-06T23:38:10.956Z,17.53
2017-09-06T23:40:37.393Z,17.48
2017-09-06T23:43:04.542Z,17.53
2017-09-06T23:45:30.979Z,17.56
2017-09-06T23:47:57.432Z,17.50
2017-09-06T23:50:23.952Z,17.44
2017-09-06T23:52:50.380Z,17.35
2017-09-06T23:55:16.819Z,17.31
2017-09-06T23:57:43.356Z,17.33
